createdAt,value
2023-05-20T00:01:51.891Z,8.40
2023-05-20T00:04:18.752Z,8.40
2023-05-20T00:06:45.499Z,8.40
2023-05-20T00:09:12.153Z,8.40
2023-05-20T00:11:38.782Z,8.40
2023-05-20T00:14:05.515Z,8.30
2023-05-20T00:16:33.341Z,8.30
2023-05-20T00:19:00.395Z,8.30
2023-05-20T00:21:27.096Z,8.30
2023-05-20T00:23:53.812Z,8.20
2023-05-20T00:26:21.386Z,8.10
2023-05-20T00:28:48.177Z,8.10
2023-05-20T00:31:14.891Z,8.10
2023-05-20T00:33:41.541Z,8.10
2023-05-20T00:36:08.679Z,8.10
2023-05-20T00:38:35.346Z,8.10
2023-05-20T00:41:02.015Z,8.00
2023-05-20T00:43:28.713Z,7.90
2023-05-20T00:45:55.838Z,7.90
2023-05-20T00:48:22.860Z,7.90
2023-05-20T00:50:50.462Z,7.90
2023-05-20T00:53:21.420Z,7.90
2023-05-20T00:55:48.479Z,7.80
2023-05-20T00:58:15.348Z,7.70
2023-05-20T01:00:42.916Z,7.60
2023-05-20T01:03:10.154Z,7.60
2023-05-20T01:05:38.168Z,7.70
2023-05-20T01:08:06.898Z,7.70
2023-05-20T01:10:35.863Z,7.70
2023-05-20T01:13:08.574Z,7.70
2023-05-20T01:15:36.186Z,7.60
2023-05-20T01:18:07.444Z,7.60
2023-05-20T01:20:35.516Z,7.50
2023-05-20T01:23:04.120Z,7.50
2023-05-20T01:25:30.860Z,7.50
2023-05-20T01:27:58.126Z,7.40
2023-05-20T01:30:33.631Z,7.40
2023-05-20T01:33:06.932Z,7.40
2023-05-20T01:35:34.653Z,7.40
2023-05-20T01:38:02.533Z,7.40
2023-05-20T01:40:29.839Z,7.40
2023-05-20T01:42:58.118Z,7.40
2023-05-20T01:45:25.573Z,7.40
2023-05-20T01:47:52.545Z,7.50
2023-05-20T01:50:19.395Z,7.40
2023-05-20T01:52:46.101Z,7.30
2023-05-20T01:55:12.731Z,7.30
2023-05-20T01:57:39.343Z,7.20
2023-05-20T02:00:06.780Z,7.20
2023-05-20T02:02:33.485Z,7.20
2023-05-20T02:05:00.339Z,7.10
2023-05-20T02:07:27.002Z,7.10
2023-05-20T02:09:53.610Z,7.10
2023-05-20T02:12:20.254Z,7.10
2023-05-20T02:14:47.869Z,7.10
2023-05-20T02:17:16.918Z,7.10
2023-05-20T02:19:44.990Z,7.10
2023-05-20T02:22:11.790Z,7.10
2023-05-20T02:24:38.687Z,7.10
2023-05-20T02:27:06.393Z,7.10
2023-05-20T02:29:33.177Z,7.00
2023-05-20T02:31:59.842Z,6.90
2023-05-20T02:34:27.408Z,7.00
2023-05-20T02:36:54.394Z,7.00
2023-05-20T02:39:21.026Z,7.00
2023-05-20T02:41:47.744Z,6.90
2023-05-20T02:44:14.847Z,6.80
2023-05-20T02:46:41.581Z,6.90
2023-05-20T02:49:08.311Z,6.90
2023-05-20T02:51:35.114Z,6.90
2023-05-20T02:54:01.837Z,6.80
2023-05-20T02:56:28.671Z,6.80
2023-05-20T02:58:55.402Z,6.70
2023-05-20T03:01:23.309Z,6.70
2023-05-20T03:03:50.053Z,6.80
2023-05-20T03:06:16.717Z,6.80
2023-05-20T03:08:43.375Z,6.80
2023-05-20T03:11:10.089Z,6.70
2023-05-20T03:13:36.774Z,6.70
2023-05-20T03:16:03.662Z,6.70
2023-05-20T03:18:30.695Z,6.70
2023-05-20T03:20:57.366Z,6.60
2023-05-20T03:23:24.076Z,6.60
2023-05-20T03:25:50.716Z,6.60
2023-05-20T03:28:17.407Z,6.60
2023-05-20T03:30:44.169Z,6.60
2023-05-20T03:33:10.774Z,6.60
2023-05-20T03:35:37.637Z,6.60
2023-05-20T03:38:04.452Z,6.60
2023-05-20T03:40:31.123Z,6.60
2023-05-20T03:42:58.793Z,6.50
2023-05-20T03:45:25.436Z,6.50
2023-05-20T03:47:52.207Z,6.50
2023-05-20T03:50:19.962Z,6.50
2023-05-20T03:52:46.643Z,6.70
2023-05-20T03:55:13.440Z,6.90
2023-05-20T03:57:40.100Z,7.00
2023-05-20T04:00:11.046Z,7.10
2023-05-20T04:02:38.491Z,7.20
2023-05-20T04:05:05.909Z,7.40
2023-05-20T04:07:32.706Z,7.50
2023-05-20T04:09:59.523Z,7.60
2023-05-20T04:12:30.527Z,7.70
2023-05-20T04:15:03.513Z,7.60
2023-05-20T04:17:31.095Z,7.60
2023-05-20T04:19:59.629Z,7.60
2023-05-20T04:22:26.987Z,7.60
2023-05-20T04:24:53.779Z,7.60
2023-05-20T04:27:21.394Z,7.80
2023-05-20T04:29:48.309Z,7.90
2023-05-20T04:32:18.669Z,8.00
2023-05-20T04:34:46.138Z,8.10
2023-05-20T04:37:13.161Z,8.00
2023-05-20T04:39:40.157Z,7.90
2023-05-20T04:42:06.810Z,8.00
2023-05-20T04:44:33.454Z,8.30
2023-05-20T04:47:00.353Z,8.40
2023-05-20T04:49:27.092Z,8.50
2023-05-20T04:51:55.381Z,8.50
2023-05-20T04:54:22.526Z,8.60
2023-05-20T04:56:49.171Z,8.70
2023-05-20T04:59:15.841Z,8.80
2023-05-20T05:01:42.803Z,9.00
2023-05-20T05:04:09.637Z,9.10
2023-05-20T05:06:36.517Z,9.00
2023-05-20T05:09:03.228Z,9.10
2023-05-20T05:11:29.882Z,9.10
2023-05-20T05:13:56.798Z,9.00
2023-05-20T05:16:23.525Z,9.10
2023-05-20T05:18:50.305Z,9.30
2023-05-20T05:21:17.232Z,9.40
2023-05-20T05:23:43.941Z,9.60
2023-05-20T05:26:10.601Z,9.60
2023-05-20T05:28:37.274Z,9.50
2023-05-20T05:31:04.004Z,9.50
2023-05-20T05:33:30.811Z,9.80
2023-05-20T05:35:59.235Z,10.00
2023-05-20T05:38:26.152Z,10.10
2023-05-20T05:40:53.457Z,10.30
2023-05-20T05:43:20.235Z,10.50
2023-05-20T05:45:46.900Z,10.70
2023-05-20T05:48:13.528Z,10.70
2023-05-20T05:50:44.414Z,10.80
2023-05-20T05:53:11.116Z,10.60
2023-05-20T05:55:37.748Z,10.60
2023-05-20T05:58:04.374Z,10.60
2023-05-20T06:00:30.998Z,10.80
2023-05-20T06:02:58.063Z,11.00
2023-05-20T06:05:25.837Z,11.10
2023-05-20T06:07:54.397Z,11.20
2023-05-20T06:10:21.730Z,11.30
2023-05-20T06:12:48.352Z,11.30
2023-05-20T06:15:15.137Z,11.40
2023-05-20T06:17:41.865Z,11.60
2023-05-20T06:20:08.930Z,11.80
2023-05-20T06:22:35.745Z,12.10
2023-05-20T06:25:02.482Z,12.30
2023-05-20T06:27:29.200Z,12.50
2023-05-20T06:29:56.019Z,12.80
2023-05-20T06:32:23.891Z,13.00
2023-05-20T06:34:50.850Z,13.10
2023-05-20T06:37:17.669Z,13.30
2023-05-20T06:39:44.820Z,13.40
2023-05-20T06:42:11.427Z,13.30
2023-05-20T06:44:38.070Z,13.20
2023-05-20T06:47:04.897Z,13.20
2023-05-20T06:49:31.508Z,13.40
2023-05-20T06:51:58.229Z,13.70
2023-05-20T06:54:24.888Z,14.00
2023-05-20T06:56:51.693Z,14.30
2023-05-20T06:59:18.424Z,14.60
2023-05-20T07:01:45.131Z,14.80
2023-05-20T07:04:11.976Z,15.00
2023-05-20T07:06:39.808Z,15.30
2023-05-20T07:09:06.520Z,15.30
2023-05-20T07:11:33.332Z,15.40
2023-05-20T07:14:00.350Z,15.40
2023-05-20T07:16:27.042Z,15.50
2023-05-20T07:18:53.742Z,15.70
2023-05-20T07:21:20.499Z,15.80
2023-05-20T07:23:47.136Z,16.20
2023-05-20T07:26:13.847Z,16.50
2023-05-20T07:28:40.513Z,16.70
2023-05-20T07:31:07.152Z,16.80
2023-05-20T07:33:33.808Z,17.00
2023-05-20T07:36:00.569Z,17.20
2023-05-20T07:38:29.840Z,17.60
2023-05-20T07:40:56.723Z,17.80
2023-05-20T07:43:23.363Z,18.00
2023-05-20T07:45:50.059Z,18.20
2023-05-20T07:48:16.865Z,18.40
2023-05-20T07:50:44.315Z,18.70
2023-05-20T07:53:18.388Z,19.00
2023-05-20T07:55:45.043Z,19.10
2023-05-20T07:58:11.731Z,19.40
2023-05-20T08:00:38.405Z,19.40
2023-05-20T08:03:05.408Z,19.10
2023-05-20T08:05:32.336Z,18.90
2023-05-20T08:07:59.395Z,18.70
2023-05-20T08:10:26.120Z,18.70
2023-05-20T08:12:52.754Z,18.80
2023-05-20T08:15:19.440Z,19.00
2023-05-20T08:17:46.225Z,18.90
2023-05-20T08:20:13.372Z,18.90
2023-05-20T08:22:40.804Z,19.00
2023-05-20T08:25:10.693Z,19.00
2023-05-20T08:27:37.597Z,19.10
2023-05-20T08:30:05.339Z,19.00
2023-05-20T08:32:32.051Z,19.00
2023-05-20T08:35:01.599Z,19.00
2023-05-20T08:37:29.320Z,19.00
2023-05-20T08:39:56.219Z,19.30
2023-05-20T08:42:24.340Z,19.50
2023-05-20T08:44:54.488Z,19.40
2023-05-20T08:47:22.010Z,19.40
2023-05-20T08:49:49.631Z,20.00
2023-05-20T08:52:21.081Z,20.40
2023-05-20T08:54:49.764Z,20.50
2023-05-20T08:57:16.773Z,20.60
2023-05-20T08:59:44.834Z,20.80
2023-05-20T09:02:11.722Z,20.70
2023-05-20T09:04:38.923Z,20.90
2023-05-20T09:07:05.969Z,20.70
2023-05-20T09:09:34.234Z,20.60
2023-05-20T09:12:03.055Z,20.90
2023-05-20T09:14:30.926Z,21.10
2023-05-20T09:16:57.697Z,21.20
2023-05-20T09:19:25.519Z,21.40
2023-05-20T09:21:55.032Z,22.30
2023-05-20T09:24:25.995Z,23.10
2023-05-20T09:26:53.091Z,23.90
2023-05-20T09:29:21.589Z,24.60
2023-05-20T09:31:49.348Z,25.10
2023-05-20T09:34:16.725Z,25.50
2023-05-20T09:36:45.094Z,25.00
2023-05-20T09:39:16.252Z,25.10
2023-05-20T09:42:05.747Z,25.40
2023-05-20T09:44:33.515Z,25.30
2023-05-20T09:47:01.774Z,26.00
2023-05-20T09:49:30.635Z,26.70
2023-05-20T09:51:59.183Z,26.90
2023-05-20T09:54:27.106Z,26.70
2023-05-20T09:56:54.605Z,26.60
2023-05-20T09:59:22.357Z,26.30
2023-05-20T10:01:49.311Z,27.00
2023-05-20T10:04:18.525Z,27.60
2023-05-20T10:07:11.843Z,27.30
2023-05-20T10:09:56.826Z,27.20
2023-05-20T10:12:46.488Z,27.70
2023-05-20T10:15:44.628Z,26.30
2023-05-20T10:18:30.280Z,26.30
2023-05-20T10:20:57.013Z,25.40
2023-05-20T10:23:27.594Z,24.00
2023-05-20T10:25:56.305Z,23.20
2023-05-20T10:28:36.413Z,23.60
2023-05-20T10:31:17.013Z,23.20
2023-05-20T10:33:45.401Z,23.00
2023-05-20T10:36:23.712Z,23.60
2023-05-20T10:38:58.307Z,24.80
2023-05-20T10:41:27.296Z,25.70
2023-05-20T10:44:05.038Z,25.00
2023-05-20T10:46:48.724Z,24.40
2023-05-20T10:49:21.816Z,23.80
2023-05-20T10:51:51.494Z,23.40
2023-05-20T10:54:18.323Z,22.90
2023-05-20T10:56:52.997Z,22.60
2023-05-20T10:59:21.595Z,22.40
2023-05-20T11:01:49.000Z,22.20
2023-05-20T11:04:17.398Z,22.10
2023-05-20T11:06:54.075Z,21.90
2023-05-20T11:09:21.440Z,21.90
2023-05-20T11:11:48.276Z,22.40
2023-05-20T11:14:15.251Z,22.10
2023-05-20T11:16:42.741Z,22.70
2023-05-20T11:19:14.783Z,23.80
2023-05-20T11:21:48.534Z,24.00
2023-05-20T11:24:24.425Z,23.50
2023-05-20T11:26:51.671Z,24.30
2023-05-20T11:29:19.899Z,23.30
2023-05-20T11:31:48.318Z,22.80
2023-05-20T11:34:15.095Z,23.40
2023-05-20T11:36:42.971Z,24.20
2023-05-20T11:39:14.732Z,23.70
2023-05-20T11:41:43.253Z,23.80
2023-05-20T11:44:12.273Z,24.50
2023-05-20T11:46:46.034Z,24.70
2023-05-20T11:49:16.510Z,24.80
2023-05-20T11:51:44.735Z,25.10
2023-05-20T11:54:11.685Z,26.10
2023-05-20T11:56:39.239Z,26.00
2023-05-20T11:59:07.280Z,25.10
2023-05-20T12:01:43.429Z,24.70
2023-05-20T12:04:13.800Z,24.00
2023-05-20T12:06:40.763Z,23.30
2023-05-20T12:09:08.821Z,23.00
2023-05-20T12:11:37.245Z,22.30
2023-05-20T12:14:04.473Z,22.10
2023-05-20T12:16:32.816Z,22.10
2023-05-20T12:19:00.496Z,22.00
2023-05-20T12:21:31.380Z,21.70
2023-05-20T12:23:59.782Z,22.00
2023-05-20T12:26:30.081Z,22.20
2023-05-20T12:28:57.060Z,22.10
2023-05-20T12:31:24.297Z,22.10
2023-05-20T12:33:51.292Z,22.60
2023-05-20T12:36:19.469Z,23.10
2023-05-20T12:38:46.589Z,23.40
2023-05-20T12:41:13.245Z,22.80
2023-05-20T12:43:39.864Z,22.60
2023-05-20T12:46:06.653Z,22.10
2023-05-20T12:48:33.559Z,21.90
2023-05-20T12:51:00.465Z,22.00
2023-05-20T12:53:27.119Z,22.30
2023-05-20T12:55:53.772Z,22.40
2023-05-20T12:58:20.696Z,22.60
2023-05-20T13:00:47.365Z,22.10
2023-05-20T13:03:14.182Z,22.10
2023-05-20T13:05:41.021Z,22.50
2023-05-20T13:08:10.113Z,22.70
2023-05-20T13:10:37.264Z,22.50
2023-05-20T13:13:04.471Z,22.10
2023-05-20T13:15:33.024Z,22.40
2023-05-20T13:18:01.365Z,22.20
2023-05-20T13:20:28.898Z,22.10
2023-05-20T13:22:55.538Z,21.80
2023-05-20T13:25:22.319Z,21.60
2023-05-20T13:27:48.977Z,21.40
2023-05-20T13:30:15.824Z,21.10
2023-05-20T13:32:42.570Z,20.90
2023-05-20T13:35:09.435Z,20.50
2023-05-20T13:37:36.134Z,20.80
2023-05-20T13:40:02.818Z,20.80
2023-05-20T13:42:29.427Z,20.80
2023-05-20T13:44:56.163Z,21.10
2023-05-20T13:47:22.926Z,21.30
2023-05-20T13:49:49.619Z,21.00
2023-05-20T13:52:16.353Z,20.80
2023-05-20T13:54:44.620Z,20.80
2023-05-20T13:57:11.293Z,20.60
2023-05-20T13:59:38.587Z,20.40
2023-05-20T14:02:05.787Z,20.30
2023-05-20T14:04:37.919Z,20.50
2023-05-20T14:07:07.697Z,20.60
2023-05-20T14:09:36.307Z,20.70
2023-05-20T14:12:03.098Z,20.50
2023-05-20T14:14:29.782Z,20.30
2023-05-20T14:16:56.408Z,20.40
2023-05-20T14:19:23.144Z,20.40
2023-05-20T14:21:49.857Z,20.50
2023-05-20T14:24:16.553Z,20.40
2023-05-20T14:26:43.211Z,20.30
2023-05-20T14:29:10.287Z,20.30
2023-05-20T14:31:39.245Z,20.40
2023-05-20T14:34:06.107Z,20.40
2023-05-20T14:36:32.881Z,20.40
2023-05-20T14:38:59.554Z,20.10
2023-05-20T14:41:26.260Z,20.10
2023-05-20T14:43:52.959Z,20.00
2023-05-20T14:46:19.637Z,20.00
2023-05-20T14:48:46.282Z,19.90
2023-05-20T14:51:12.982Z,20.00
2023-05-20T14:53:39.638Z,19.80
2023-05-20T14:56:06.404Z,19.60
2023-05-20T14:58:33.116Z,19.50
2023-05-20T15:01:00.061Z,19.70
2023-05-20T15:03:28.012Z,19.80
2023-05-20T15:05:54.795Z,19.80
2023-05-20T15:08:21.529Z,19.80
2023-05-20T15:10:48.168Z,19.80
2023-05-20T15:13:14.864Z,19.70
2023-05-20T15:15:41.509Z,19.60
2023-05-20T15:18:08.239Z,19.50
2023-05-20T15:20:35.098Z,19.60
2023-05-20T15:23:01.749Z,19.50
2023-05-20T15:25:28.367Z,19.60
2023-05-20T15:27:55.093Z,19.50
2023-05-20T15:30:22.820Z,19.40
2023-05-20T15:32:49.726Z,19.20
2023-05-20T15:35:16.633Z,19.10
2023-05-20T15:37:43.286Z,19.20
2023-05-20T15:40:10.490Z,19.10
2023-05-20T15:42:37.128Z,19.20
2023-05-20T15:45:03.887Z,19.50
2023-05-20T15:47:30.591Z,19.70
2023-05-20T15:49:57.828Z,19.80
2023-05-20T15:52:24.507Z,19.80
2023-05-20T15:54:51.257Z,19.50
2023-05-20T15:57:17.904Z,19.70
2023-05-20T15:59:44.546Z,19.70
2023-05-20T16:02:11.292Z,19.80
2023-05-20T16:04:38.017Z,19.70
2023-05-20T16:07:04.810Z,19.70
2023-05-20T16:09:31.487Z,19.70
2023-05-20T16:11:58.173Z,19.70
2023-05-20T16:14:24.917Z,19.70
2023-05-20T16:16:51.537Z,19.40
2023-05-20T16:19:18.330Z,19.10
2023-05-20T16:21:45.393Z,19.00
2023-05-20T16:24:12.468Z,19.00
2023-05-20T16:26:39.425Z,19.00
2023-05-20T16:29:06.492Z,19.10
2023-05-20T16:31:33.427Z,19.10
2023-05-20T16:34:00.119Z,19.10
2023-05-20T16:36:26.855Z,19.10
2023-05-20T16:38:53.506Z,19.20
2023-05-20T16:41:20.760Z,19.30
2023-05-20T16:43:47.417Z,19.40
2023-05-20T16:46:14.505Z,19.50
2023-05-20T16:48:42.260Z,19.60
2023-05-20T16:51:08.864Z,19.60
2023-05-20T16:53:35.496Z,19.50
2023-05-20T16:56:02.310Z,19.50
2023-05-20T16:58:29.006Z,19.50
2023-05-20T17:00:55.663Z,19.40
2023-05-20T17:03:22.448Z,19.30
2023-05-20T17:05:49.281Z,19.30
2023-05-20T17:08:16.348Z,19.20
2023-05-20T17:10:43.025Z,19.10
2023-05-20T17:13:09.742Z,19.10
2023-05-20T17:15:37.185Z,19.10
2023-05-20T17:18:04.232Z,19.00
2023-05-20T17:20:31.176Z,18.90
2023-05-20T17:22:57.869Z,18.70
2023-05-20T17:25:24.682Z,18.50
2023-05-20T17:27:51.567Z,18.50
2023-05-20T17:30:18.269Z,18.40
2023-05-20T17:32:44.986Z,18.40
2023-05-20T17:35:11.728Z,18.40
2023-05-20T17:37:44.893Z,18.40
2023-05-20T17:40:13.249Z,18.50
2023-05-20T17:42:40.388Z,18.50
2023-05-20T17:45:07.409Z,18.60
2023-05-20T17:47:34.135Z,18.60
2023-05-20T17:50:02.407Z,18.50
2023-05-20T17:52:29.060Z,18.30
2023-05-20T17:54:55.681Z,18.10
2023-05-20T17:57:22.376Z,18.00
2023-05-20T17:59:49.411Z,17.80
2023-05-20T18:02:16.079Z,17.70
2023-05-20T18:04:42.683Z,17.70
2023-05-20T18:07:09.433Z,17.60
2023-05-20T18:09:36.141Z,17.60
2023-05-20T18:12:02.927Z,17.50
2023-05-20T18:14:29.536Z,17.50
2023-05-20T18:16:57.369Z,17.40
2023-05-20T18:19:25.004Z,17.30
2023-05-20T18:21:51.783Z,17.30
2023-05-20T18:24:20.280Z,17.20
2023-05-20T18:26:47.582Z,17.20
2023-05-20T18:29:14.316Z,17.20
2023-05-20T18:31:43.284Z,17.20
2023-05-20T18:34:10.581Z,17.20
2023-05-20T18:36:37.370Z,17.20
2023-05-20T18:39:04.678Z,17.20
2023-05-20T18:41:39.358Z,17.10
2023-05-20T18:44:17.208Z,17.00
2023-05-20T18:46:44.157Z,16.90
2023-05-20T18:49:10.999Z,16.70
2023-05-20T18:51:41.296Z,16.60
2023-05-20T18:54:08.289Z,16.40
2023-05-20T18:56:35.660Z,16.40
2023-05-20T18:59:02.405Z,16.30
2023-05-20T19:01:29.142Z,16.30
2023-05-20T19:03:56.097Z,16.30
2023-05-20T19:06:22.784Z,16.30
2023-05-20T19:08:49.643Z,16.20
2023-05-20T19:11:16.451Z,16.20
2023-05-20T19:13:43.144Z,16.20
2023-05-20T19:16:10.012Z,16.10
2023-05-20T19:18:36.761Z,16.10
2023-05-20T19:21:03.604Z,16.10
2023-05-20T19:23:30.483Z,16.00
2023-05-20T19:25:57.211Z,16.00
2023-05-20T19:28:23.910Z,15.90
2023-05-20T19:30:50.703Z,15.90
2023-05-20T19:33:17.561Z,15.80
2023-05-20T19:35:44.196Z,15.70
2023-05-20T19:38:10.928Z,15.70
2023-05-20T19:40:37.695Z,15.70
2023-05-20T19:43:04.772Z,15.70
2023-05-20T19:45:32.134Z,15.60
2023-05-20T19:47:58.914Z,15.50
2023-05-20T19:50:25.654Z,15.50
2023-05-20T19:52:52.388Z,15.30
2023-05-20T19:55:19.101Z,15.20
2023-05-20T19:57:47.468Z,15.10
2023-05-20T20:00:15.428Z,15.00
2023-05-20T20:02:42.079Z,15.00
2023-05-20T20:05:09.881Z,14.80
2023-05-20T20:07:36.705Z,14.70
2023-05-20T20:10:03.796Z,14.60
2023-05-20T20:12:30.646Z,14.50
2023-05-20T20:14:57.334Z,14.30
2023-05-20T20:17:24.232Z,14.20
2023-05-20T20:19:53.296Z,14.10
2023-05-20T20:22:20.242Z,14.10
2023-05-20T20:24:47.213Z,14.00
2023-05-20T20:27:13.892Z,13.90
2023-05-20T20:29:43.488Z,13.80
2023-05-20T20:32:11.096Z,13.70
2023-05-20T20:34:37.960Z,13.60
2023-05-20T20:37:04.888Z,13.50
2023-05-20T20:39:31.647Z,13.50
2023-05-20T20:41:58.867Z,13.40
2023-05-20T20:44:26.574Z,13.30
2023-05-20T20:46:55.208Z,13.20
2023-05-20T20:49:23.043Z,13.10
2023-05-20T20:51:50.769Z,13.10
2023-05-20T20:54:17.473Z,13.10
2023-05-20T20:56:46.918Z,13.10
2023-05-20T20:59:15.545Z,13.10
2023-05-20T21:01:42.595Z,13.00
2023-05-20T21:04:09.628Z,13.00
2023-05-20T21:06:37.767Z,13.00
2023-05-20T21:09:04.699Z,12.90
2023-05-20T21:11:31.714Z,12.90
2023-05-20T21:13:58.500Z,12.90
2023-05-20T21:16:25.197Z,12.90
2023-05-20T21:18:51.984Z,12.90
2023-05-20T21:21:21.504Z,12.80
2023-05-20T21:23:50.760Z,12.70
2023-05-20T21:26:17.678Z,12.70
2023-05-20T21:28:44.292Z,12.60
2023-05-20T21:31:11.278Z,12.60
2023-05-20T21:33:38.028Z,12.60
2023-05-20T21:36:05.217Z,12.60
2023-05-20T21:38:31.949Z,12.60
2023-05-20T21:40:58.797Z,12.60
2023-05-20T21:43:25.524Z,12.50
2023-05-20T21:45:52.268Z,12.40
2023-05-20T21:48:18.992Z,12.40
2023-05-20T21:50:45.680Z,12.40
2023-05-20T21:53:12.368Z,12.40
2023-05-20T21:55:39.059Z,12.40
2023-05-20T21:58:05.940Z,12.30
2023-05-20T22:00:32.773Z,12.40
2023-05-20T22:02:59.491Z,12.40
2023-05-20T22:05:26.325Z,12.30
2023-05-20T22:07:54.530Z,12.40
2023-05-20T22:10:23.268Z,12.40
2023-05-20T22:12:50.886Z,12.50
2023-05-20T22:15:18.120Z,12.40
2023-05-20T22:17:47.414Z,12.40
2023-05-20T22:20:14.292Z,12.40
2023-05-20T22:22:40.933Z,12.50
2023-05-20T22:25:08.160Z,12.50
2023-05-20T22:27:34.933Z,12.40
2023-05-20T22:30:02.375Z,12.40
2023-05-20T22:32:29.081Z,12.40
2023-05-20T22:34:58.493Z,12.40
2023-05-20T22:37:26.688Z,12.30
2023-05-20T22:39:53.436Z,12.20
2023-05-20T22:42:20.468Z,12.20
2023-05-20T22:44:47.233Z,12.00
2023-05-20T22:47:13.999Z,11.90
2023-05-20T22:49:42.150Z,11.90
2023-05-20T22:52:08.836Z,11.90
2023-05-20T22:54:35.546Z,12.10
2023-05-20T22:57:02.278Z,12.10
2023-05-20T22:59:31.022Z,12.20
2023-05-20T23:01:57.950Z,12.30
2023-05-20T23:04:24.799Z,12.30
2023-05-20T23:06:53.737Z,12.30
2023-05-20T23:09:20.927Z,12.30
2023-05-20T23:11:47.622Z,12.40
2023-05-20T23:14:14.408Z,12.40
2023-05-20T23:16:42.025Z,12.40
2023-05-20T23:19:09.030Z,12.40
2023-05-20T23:21:37.226Z,12.30
2023-05-20T23:24:04.532Z,12.30
2023-05-20T23:26:31.491Z,12.20
2023-05-20T23:28:58.211Z,12.10
2023-05-20T23:31:26.830Z,12.10
2023-05-20T23:33:54.186Z,12.00
2023-05-20T23:36:20.932Z,12.10
2023-05-20T23:38:47.545Z,12.10
2023-05-20T23:41:14.198Z,12.10
2023-05-20T23:43:41.183Z,12.10
2023-05-20T23:46:08.204Z,12.10
2023-05-20T23:48:35.966Z,12.00
2023-05-20T23:51:03.061Z,12.00
2023-05-20T23:53:29.960Z,12.00
2023-05-20T23:55:56.583Z,12.00
2023-05-20T23:58:23.599Z,11.90
